Portada
METAR-TAF:

METAR-TAF

Aeroports :

Rarotonga, Illes Cook

latitud: 21-12S, longitud: 159-49W, altitud: 7 m

Observació

L'informe es va fer fa 13 minuts, a les 22:00 UTC
Vent 7 kt del Nord/Nord-Est
Temperatura 27°C
Humitat 74%
Pressió 1012 hPa
Visibilitat 10 km o més

METAR: NCRG 192200Z AUTO 02007KT 9999 FEW015/// BKN035/// 27/22 Q1012

Hora: 12:13 (22:13 UTC)

Pronòstic

L'informe es va fer fa 5 hores i 7 minuts, a les 17:06 UTC
Pronòstic vàlid del 19 a les 18 UTC al 20 a les 18 UTC
Vent 10 kt del Est
Visibilitat 10 km o més
Núvols disperses a una alçada de 3000 ft
Probabilitat 40% :
Temporalment
l' 20 a les 02 UTC al 20 a les 09 UTC
Visibilitat: 5000 m
Cel ennuvolat a una alçada de 1500 ft
xàfecs de pluja

TAF: NCRG 191706Z 1918/2018 10010KT 9999 SCT030 PROB40 TEMPO 2002/2009 5000 SHRA BKN015

Observacions i pronòstics meteorològics de més de 4000 aeroports (METAR i TAF).

Les estacions disponibles són els punts grocs i vermells al mapa.

Posi el ratolí al punt desitjat per veure el nom de l'estació.

Feu clic per veure les observacions i els pronòstics meteorològics.

Per canviar el mapa: feu clic els botons verds amb una creu de color negre per apropar; al botó verd amb un guió per allunyar la imatge; o en les fletxes verdes per a mapes adjacents.


METAR-TAF: